Time;durP1;ratioP1;P1;durP2;ratioP2;P2;SDS_P1;SDS_P2;PMS_P1;PMS_P2;Temp;Humidity;BMP_temperature;BMP_pressure;BME280_temperature;BME280_humidity;BME280_pressure;Samples;Min_cycle;Max_cycle;Signal;HPM_P1;HPM_P2
2022/04/26 03:36:06;;;;;;;33.00;14.70;;;7.00;99.90;;;;;;4994528;28;20393;-80
2022/04/26 03:38:32;;;;;;;24.52;13.32;;;7.00;99.90;;;;;;4982162;28;20045;-83
2022/04/26 03:40:58;;;;;;;22.27;13.63;;;7.00;99.90;;;;;;4981298;28;20046;-80
2022/04/26 03:43:24;;;;;;;24.57;13.33;;;7.00;99.90;;;;;;5000789;28;20049;-81
2022/04/26 03:45:49;;;;;;;26.07;14.00;;;7.00;99.90;;;;;;4945676;28;20030;-81
2022/04/26 03:48:15;;;;;;;27.03;12.90;;;7.00;99.90;;;;;;4978562;28;20065;-82
2022/04/26 03:50:41;;;;;;;25.03;14.03;;;7.00;99.90;;;;;;4996380;28;20061;-83
2022/04/26 03:53:07;;;;;;;23.73;12.77;;;7.00;99.90;;;;;;4996205;28;20065;-80
2022/04/26 03:55:32;;;;;;;27.73;13.27;;;7.00;99.90;;;;;;4978287;28;20038;-82
2022/04/26 03:57:58;;;;;;;26.77;12.30;;;7.00;99.90;;;;;;4991179;28;20053;-82
2022/04/26 04:00:26;;;;;;;23.50;13.47;;;7.00;99.90;;;;;;4976911;28;20125;-79
2022/04/26 04:02:52;;;;;;;28.80;12.73;;;7.00;99.90;;;;;;4980981;28;20042;-83
2022/04/26 04:05:17;;;;;;;24.57;12.60;;;7.10;99.90;;;;;;4981651;28;20426;-80
2022/04/26 04:07:43;;;;;;;26.57;12.47;;;7.00;99.90;;;;;;4979856;28;20132;-82
2022/04/26 04:10:09;;;;;;;24.60;12.57;;;7.00;99.90;;;;;;4978474;28;20114;-79
2022/04/26 04:12:35;;;;;;;26.40;12.53;;;7.00;99.90;;;;;;4983268;28;20073;-81
2022/04/26 04:15:01;;;;;;;23.73;12.60;;;7.00;99.90;;;;;;4979812;28;20140;-80
2022/04/26 04:17:26;;;;;;;18.73;13.17;;;6.90;99.90;;;;;;4999619;28;20046;-84
2022/04/26 04:19:52;;;;;;;24.23;12.50;;;6.90;99.90;;;;;;4980564;28;20123;-80
2022/04/26 04:22:18;;;;;;;22.77;12.33;;;7.00;99.90;;;;;;4966519;28;20077;-82
2022/04/26 04:24:43;;;;;;;22.77;11.90;;;6.90;99.90;;;;;;4988964;28;20042;-81
2022/04/26 04:27:10;;;;;;;19.57;11.27;;;6.90;99.90;;;;;;5001859;28;20065;-80
2022/04/26 04:29:36;;;;;;;26.40;11.97;;;6.80;99.90;;;;;;4980311;28;20042;-80
2022/04/26 04:32:03;;;;;;;23.00;10.80;;;6.90;99.90;;;;;;4981639;28;20509;-79
2022/04/26 04:34:28;;;;;;;24.23;12.70;;;6.80;99.90;;;;;;4994620;28;20131;-80
2022/04/26 04:36:54;;;;;;;22.13;12.30;;;6.80;99.90;;;;;;4976926;28;20128;-80
2022/04/26 04:39:20;;;;;;;23.83;11.67;;;6.90;99.90;;;;;;4963209;28;20816;-79
2022/04/26 04:41:51;;;;;;;18.57;11.80;;;6.80;99.90;;;;;;4978990;28;20053;-80
2022/04/26 04:44:18;;;;;;;19.60;12.20;;;6.90;99.90;;;;;;4975711;28;20038;-79
2022/04/26 04:46:45;;;;;;;26.07;12.47;;;6.80;99.90;;;;;;5009706;28;20563;-79
2022/04/26 04:49:10;;;;;;;23.43;11.10;;;6.80;99.90;;;;;;4993907;28;20038;-79
2022/04/26 04:51:36;;;;;;;19.30;11.27;;;6.90;99.90;;;;;;4979085;28;20100;-82
2022/04/26 04:54:04;;;;;;;19.20;11.37;;;6.90;99.90;;;;;;4995733;28;20041;-78
2022/04/26 04:56:30;;;;;;;23.37;11.50;;;6.90;99.90;;;;;;4977334;28;20037;-80
2022/04/26 04:58:55;;;;;;;17.93;11.23;;;6.90;99.90;;;;;;4981315;28;20446;-80
2022/04/26 05:01:21;;;;;;;27.13;11.50;;;7.00;99.90;;;;;;4977207;28;20080;-80
2022/04/26 05:03:47;;;;;;;26.57;11.60;;;6.90;99.90;;;;;;4992422;28;20061;-79
2022/04/26 05:06:14;;;;;;;20.07;10.10;;;7.00;99.90;;;;;;4970419;28;20442;-80
2022/04/26 05:08:41;;;;;;;21.33;10.77;;;7.00;99.90;;;;;;4995401;28;20034;-81
2022/04/26 05:11:07;;;;;;;18.87;9.60;;;7.10;99.90;;;;;;4990528;28;20034;-79
2022/04/26 05:13:32;;;;;;;18.40;9.93;;;7.10;99.90;;;;;;4980701;28;20038;-79
2022/04/26 05:15:58;;;;;;;21.53;11.30;;;7.10;99.90;;;;;;4978196;28;20052;-78
2022/04/26 05:18:24;;;;;;;22.03;10.57;;;7.10;99.90;;;;;;4978220;28;20048;-79
2022/04/26 05:20:50;;;;;;;18.30;10.87;;;7.20;99.90;;;;;;4981594;28;20038;-78
2022/04/26 05:26:00;;;;;;;23.37;10.43;;;7.20;99.90;;;;;;4993628;28;20453;-78
2022/04/26 05:28:26;;;;;;;22.13;9.80;;;7.20;99.90;;;;;;4996378;28;20084;-78
2022/04/26 05:30:54;;;;;;;20.43;10.43;;;7.30;99.90;;;;;;4996433;28;20045;-79
2022/04/26 05:33:21;;;;;;;15.93;9.47;;;7.30;99.90;;;;;;4998758;28;20047;-78
2022/04/26 05:35:48;;;;;;;17.97;9.30;;;7.40;99.90;;;;;;5012338;28;20149;-79
2022/04/26 05:38:15;;;;;;;17.30;9.47;;;7.40;99.90;;;;;;4980290;28;20056;-80
2022/04/26 05:40:41;;;;;;;23.57;10.40;;;7.40;99.90;;;;;;4982675;28;20108;-78
2022/04/26 05:43:07;;;;;;;18.40;9.83;;;7.50;99.90;;;;;;4996594;28;20052;-81
2022/04/26 05:45:33;;;;;;;17.57;9.77;;;7.50;99.90;;;;;;4983195;28;20042;-80
2022/04/26 05:47:59;;;;;;;18.37;10.03;;;7.50;99.90;;;;;;4997934;28;20099;-82
2022/04/26 05:50:25;;;;;;;13.33;8.63;;;7.50;99.90;;;;;;4996291;28;20100;-80
2022/04/26 05:52:51;;;;;;;20.40;9.30;;;7.50;99.90;;;;;;4996530;28;20045;-80
2022/04/26 05:55:17;;;;;;;19.47;9.37;;;7.50;99.90;;;;;;4982023;28;20054;-81
2022/04/26 05:57:42;;;;;;;20.37;9.40;;;7.50;99.90;;;;;;4979966;28;20042;-80
2022/04/26 06:00:11;;;;;;;19.33;9.13;;;7.60;99.90;;;;;;4979760;28;20473;-79
2022/04/26 06:02:36;;;;;;;17.03;8.90;;;7.60;99.90;;;;;;4998522;28;20038;-80
2022/04/26 06:05:03;;;;;;;17.53;9.40;;;7.70;99.90;;;;;;4982985;28;20100;-80
2022/04/26 06:07:29;;;;;;;21.47;8.97;;;7.70;99.90;;;;;;4976708;28;20121;-81
2022/04/26 06:09:55;;;;;;;17.07;9.13;;;7.80;99.90;;;;;;4999325;28;20428;-79
2022/04/26 06:12:26;;;;;;;17.80;8.70;;;7.80;99.90;;;;;;5013667;28;20048;-81
2022/04/26 06:15:02;;;;;;;13.93;7.83;;;7.90;99.90;;;;;;5005995;28;20046;-80
2022/04/26 06:17:28;;;;;;;15.13;8.30;;;8.00;99.90;;;;;;4981138;28;20049;-80
2022/04/26 06:19:54;;;;;;;16.17;8.10;;;8.10;99.90;;;;;;5003506;28;20176;-82
2022/04/26 06:22:20;;;;;;;16.87;8.40;;;8.20;99.90;;;;;;4981560;28;20117;-82
2022/04/26 06:24:46;;;;;;;16.80;7.93;;;8.40;99.90;;;;;;4995073;28;20441;-79
2022/04/26 06:27:12;;;;;;;17.13;7.87;;;8.40;99.90;;;;;;4977132;28;20045;-80
2022/04/26 06:29:37;;;;;;;13.70;6.70;;;8.60;99.90;;;;;;4994441;28;20053;-80
2022/04/26 06:32:04;;;;;;;18.77;7.80;;;8.70;99.90;;;;;;4989018;28;20041;-81
2022/04/26 06:34:29;;;;;;;13.70;6.93;;;8.70;99.90;;;;;;4994022;28;20437;-81
2022/04/26 06:36:55;;;;;;;19.20;7.43;;;8.80;99.90;;;;;;4997049;28;20172;-80
2022/04/26 06:39:21;;;;;;;12.20;6.80;;;8.70;99.90;;;;;;4980252;28;20038;-82
2022/04/26 06:41:47;;;;;;;15.63;6.80;;;8.70;99.90;;;;;;5008621;28;20045;-79
2022/04/26 06:44:13;;;;;;;10.77;6.97;;;8.60;99.90;;;;;;4994091;28;20044;-83
2022/04/26 06:46:39;;;;;;;10.57;6.63;;;8.70;99.90;;;;;;4980910;28;20038;-82
2022/04/26 06:49:05;;;;;;;16.97;7.80;;;8.70;99.90;;;;;;4968325;28;20062;-82
2022/04/26 06:51:40;;;;;;;13.50;7.33;;;8.60;99.90;;;;;;4952981;28;20046;-80
2022/04/26 06:54:07;;;;;;;16.87;7.07;;;8.60;99.90;;;;;;4967892;28;20058;-83
2022/04/26 06:56:33;;;;;;;10.77;7.23;;;8.60;99.90;;;;;;4969014;28;20101;-80
2022/04/26 06:58:58;;;;;;;14.63;7.10;;;8.60;99.90;;;;;;4950585;28;20034;-78
2022/04/26 07:01:24;;;;;;;14.97;6.73;;;8.60;99.90;;;;;;4967236;28;20380;-83
2022/04/26 07:03:50;;;;;;;12.37;7.07;;;8.70;99.90;;;;;;4951898;28;20073;-83
2022/04/26 07:06:16;;;;;;;14.17;6.67;;;8.70;99.90;;;;;;4968207;28;20098;-81
2022/04/26 07:08:42;;;;;;;9.53;6.47;;;8.80;99.90;;;;;;4968902;28;20047;-80
2022/04/26 07:11:08;;;;;;;14.03;6.20;;;8.80;99.90;;;;;;4953413;28;20041;-82
2022/04/26 07:13:34;;;;;;;11.80;5.97;;;8.90;99.90;;;;;;4968763;28;20043;-85
2022/04/26 07:16:00;;;;;;;15.00;6.33;;;8.90;99.90;;;;;;4949131;28;20509;-79
2022/04/26 07:18:26;;;;;;;13.17;6.77;;;8.90;99.90;;;;;;4950352;28;20090;-79
2022/04/26 07:20:52;;;;;;;10.60;5.60;;;8.90;99.90;;;;;;4967790;28;20137;-81
2022/04/26 07:23:18;;;;;;;14.13;6.47;;;9.00;99.90;;;;;;4951535;28;20054;-83
2022/04/26 07:25:44;;;;;;;10.63;6.50;;;8.90;99.90;;;;;;4952591;28;20027;-80
2022/04/26 07:28:10;;;;;;;8.07;5.73;;;9.00;99.90;;;;;;4963671;28;20070;-79
2022/04/26 07:30:36;;;;;;;10.87;6.27;;;9.10;99.90;;;;;;4965305;28;20066;-79
2022/04/26 07:35:53;;;;;;;9.40;5.50;;;9.40;99.90;;;;;;4984344;28;20054;-82
2022/04/26 07:38:19;;;;;;;7.90;5.60;;;9.40;99.90;;;;;;4968705;28;20093;-80
2022/04/26 07:40:46;;;;;;;12.70;5.70;;;9.40;99.90;;;;;;4966545;28;20046;-80
2022/04/26 07:43:12;;;;;;;10.97;5.70;;;9.50;99.90;;;;;;4951337;28;20078;-82
2022/04/26 07:45:40;;;;;;;11.90;5.80;;;9.80;99.90;;;;;;4968791;28;20113;-80
2022/04/26 07:48:07;;;;;;;9.37;5.80;;;10.00;99.90;;;;;;4967764;28;20054;-83
2022/04/26 07:50:34;;;;;;;12.40;5.80;;;10.10;99.90;;;;;;4984180;28;20066;-79
2022/04/26 07:53:01;;;;;;;8.00;5.03;;;10.10;99.90;;;;;;4969238;28;20585;-80
2022/04/26 07:55:28;;;;;;;10.50;5.63;;;10.30;99.90;;;;;;4949883;28;20034;-82
2022/04/26 07:57:54;;;;;;;9.27;5.27;;;10.50;99.90;;;;;;4952103;28;20050;-80
2022/04/26 08:00:20;;;;;;;9.30;4.40;;;10.60;99.90;;;;;;4952112;28;20034;-82
2022/04/26 08:02:45;;;;;;;12.17;4.77;;;10.70;99.90;;;;;;4934897;28;20402;-80
2022/04/26 08:05:14;;;;;;;6.10;4.87;;;10.90;99.90;;;;;;4968660;28;20172;-82
2022/04/26 08:07:41;;;;;;;7.17;4.47;;;10.90;99.90;;;;;;4952037;28;20070;-81
2022/04/26 08:10:11;;;;;;;7.87;4.67;;;10.80;99.90;;;;;;4953936;28;20078;-83
2022/04/26 08:12:41;;;;;;;5.60;4.43;;;10.70;99.90;;;;;;4965541;28;20039;-84
2022/04/26 08:15:08;;;;;;;9.43;4.90;;;10.40;99.90;;;;;;4964937;28;21061;-82
2022/04/26 08:17:33;;;;;;;8.37;4.63;;;10.30;99.90;;;;;;4936467;28;20038;-79
2022/04/26 08:19:59;;;;;;;11.20;4.50;;;10.20;99.90;;;;;;4951372;28;20047;-81
2022/04/26 08:22:25;;;;;;;6.43;4.20;;;10.10;99.90;;;;;;4968345;28;20043;-83
2022/04/26 08:27:35;;;;;;;8.97;4.80;;;9.90;99.90;;;;;;4963474;28;20122;-84
2022/04/26 08:30:03;;;;;;;7.77;4.90;;;9.80;99.90;;;;;;4951658;28;20134;-82
2022/04/26 08:32:40;;;;;;;8.30;4.63;;;9.90;99.90;;;;;;4983511;28;20510;-83
2022/04/26 08:35:07;;;;;;;11.03;4.60;;;10.00;99.90;;;;;;4920954;28;20045;-82
2022/04/26 08:37:36;;;;;;;6.10;3.67;;;10.00;99.90;;;;;;4961257;28;20047;-80
2022/04/26 08:40:05;;;;;;;6.57;3.60;;;10.20;99.90;;;;;;4920039;28;20358;-80
2022/04/26 08:42:35;;;;;;;6.63;3.93;;;10.40;99.90;;;;;;4965825;28;20063;-83
2022/04/26 08:45:03;;;;;;;9.30;4.37;;;10.50;99.90;;;;;;4983261;28;20502;-82
2022/04/26 08:52:58;;;;;;;5.47;4.00;;;10.70;99.90;;;;;;4978232;28;20069;-78
2022/04/26 08:55:24;;;;;;;9.17;4.17;;;10.90;99.90;;;;;;4976023;28;20046;-78
2022/04/26 08:57:49;;;;;;;6.50;4.37;;;11.00;99.90;;;;;;4975273;28;20370;-77
2022/04/26 09:00:15;;;;;;;7.33;4.33;;;10.90;99.90;;;;;;4974808;28;20042;-77
2022/04/26 09:02:41;;;;;;;7.97;4.53;;;10.90;99.90;;;;;;4976331;28;20989;-78
2022/04/26 09:05:14;;;;;;;10.00;4.57;;;10.80;99.90;;;;;;4960310;28;20104;-77
2022/04/26 09:07:42;;;;;;;8.00;4.13;;;10.70;99.90;;;;;;4989961;28;20504;-78
2022/04/26 09:10:13;;;;;;;9.27;3.97;;;10.50;99.90;;;;;;4975760;28;20069;-77
2022/04/26 09:12:57;;;;;;;6.70;4.18;;;10.50;99.90;;;;;;4991472;28;20049;-77
2022/04/26 09:15:24;;;;;;;6.17;4.00;;;10.50;99.90;;;;;;4990875;28;20956;-77
2022/04/26 09:17:50;;;;;;;10.60;4.00;;;10.60;99.90;;;;;;4960791;28;20042;-78
2022/04/26 09:20:31;;;;;;;9.90;4.47;;;11.10;99.90;;;;;;4976136;28;20049;-77
2022/04/26 09:23:00;;;;;;;10.37;4.13;;;11.30;99.90;;;;;;4991936;28;20053;-77
2022/04/26 09:25:26;;;;;;;8.03;4.27;;;11.30;99.90;;;;;;4981183;28;20319;-77
2022/04/26 09:27:58;;;;;;;8.30;4.50;;;11.10;99.90;;;;;;4996224;28;20112;-77
2022/04/26 09:30:29;;;;;;;10.63;4.38;;;11.30;99.90;;;;;;4980897;28;20048;-77
2022/04/26 09:32:54;;;;;;;7.57;4.30;;;11.50;99.90;;;;;;4964227;28;20073;-77
2022/04/26 09:35:32;;;;;;;11.77;4.50;;;11.50;99.90;;;;;;4981915;28;20328;-77
2022/04/26 09:38:02;;;;;;;6.57;3.77;;;11.50;99.90;;;;;;4975484;28;20082;-77
2022/04/26 09:40:31;;;;;;;9.67;4.00;;;11.40;99.90;;;;;;4994814;28;20057;-77
2022/04/26 09:42:57;;;;;;;11.37;4.43;;;11.30;99.90;;;;;;5011151;28;20107;-78
2022/04/26 09:45:23;;;;;;;7.67;4.50;;;11.40;99.90;;;;;;4974253;28;20493;-78
2022/04/26 09:47:50;;;;;;;6.07;4.40;;;11.50;99.90;;;;;;4981727;28;20037;-78
2022/04/26 09:50:17;;;;;;;8.27;4.40;;;11.50;99.90;;;;;;4997589;28;20049;-78
2022/04/26 09:52:43;;;;;;;7.00;4.37;;;11.30;99.90;;;;;;5008400;28;20045;-77
2022/04/26 09:55:11;;;;;;;9.37;4.83;;;11.20;99.90;;;;;;5008877;28;20053;-77
2022/04/26 09:57:38;;;;;;;9.10;4.70;;;11.10;99.90;;;;;;5009577;28;20816;-78
2022/04/26 10:00:09;;;;;;;8.70;4.67;;;11.00;99.90;;;;;;5013630;28;20304;-78
2022/04/26 10:02:38;;;;;;;5.40;4.13;;;11.40;99.90;;;;;;4992877;28;20041;-78
2022/04/26 10:05:05;;;;;;;8.57;4.43;;;11.80;99.90;;;;;;4993649;28;20084;-78
2022/04/26 10:07:40;;;;;;;8.83;4.80;;;12.20;99.90;;;;;;4997030;28;20042;-77
2022/04/26 10:10:06;;;;;;;7.40;4.40;;;12.20;99.90;;;;;;5029800;28;20045;-77
2022/04/26 10:12:33;;;;;;;10.27;4.60;;;12.00;99.90;;;;;;4993298;28;20050;-78
2022/04/26 10:15:04;;;;;;;6.87;4.10;;;11.90;99.90;;;;;;4990030;28;20051;-78
2022/04/26 10:17:32;;;;;;;5.37;4.20;;;12.10;99.90;;;;;;4995522;28;20107;-77
2022/04/26 10:20:00;;;;;;;8.73;4.30;;;12.50;99.90;;;;;;5030126;28;20060;-78
2022/04/26 10:22:54;;;;;;;7.83;4.70;;;12.60;99.90;;;;;;5026912;28;20045;-78
2022/04/26 10:25:21;;;;;;;5.90;3.90;;;12.20;99.90;;;;;;4990215;28;20037;-78
2022/04/26 10:28:29;;;;;;;8.00;3.90;;;12.00;99.90;;;;;;5010773;28;20412;-78
2022/04/26 10:30:57;;;;;;;5.97;3.93;;;11.80;99.90;;;;;;4992865;28;20041;-78
2022/04/26 10:33:41;;;;;;;8.50;4.63;;;11.70;99.90;;;;;;5002747;28;20073;-78
2022/04/26 10:36:29;;;;;;;7.73;4.60;;;12.10;99.90;;;;;;4995058;28;20046;-77
2022/04/26 10:39:12;;;;;;;7.17;4.47;;;12.30;99.90;;;;;;4994276;28;20049;-77
2022/04/26 10:41:46;;;;;;;7.47;4.37;;;12.60;99.90;;;;;;5012946;28;20059;-78
2022/04/26 10:44:19;;;;;;;11.77;4.50;;;13.00;99.90;;;;;;5007469;28;20120;-77
2022/04/26 10:46:55;;;;;;;10.13;4.87;;;12.80;99.90;;;;;;4988291;28;20045;-77
2022/04/26 10:49:27;;;;;;;4.73;3.93;;;12.80;99.90;;;;;;5011188;28;20101;-78
2022/04/26 10:51:57;;;;;;;10.02;4.30;;;12.90;99.90;;;;;;5009953;28;20411;-77
2022/04/26 10:54:45;;;;;;;8.50;4.40;;;13.10;99.90;;;;;;5027286;28;20103;-78
2022/04/26 10:57:11;;;;;;;9.83;4.73;;;13.30;99.90;;;;;;5014308;28;20133;-79
2022/04/26 10:59:48;;;;;;;5.27;4.20;;;13.30;99.90;;;;;;5009417;28;20034;-78
2022/04/26 11:02:19;;;;;;;7.40;4.30;;;13.50;99.90;;;;;;5009555;28;20049;-78
2022/04/26 11:04:46;;;;;;;8.63;4.33;;;13.40;99.90;;;;;;5001223;28;20045;-78
2022/04/26 11:07:16;;;;;;;9.43;4.30;;;13.10;99.90;;;;;;5016528;28;20052;-78
2022/04/26 11:09:53;;;;;;;7.50;4.30;;;12.70;99.90;;;;;;4992561;28;20046;-78
2022/04/26 11:12:29;;;;;;;7.70;4.17;;;12.80;99.90;;;;;;5010438;28;20132;-78
2022/04/26 11:14:57;;;;;;;7.50;4.63;;;13.10;99.90;;;;;;4988317;28;20135;-78
2022/04/26 11:17:24;;;;;;;7.53;4.60;;;13.50;99.90;;;;;;5012073;28;20041;-78
2022/04/26 11:19:55;;;;;;;5.90;4.20;;;13.30;99.90;;;;;;5025536;28;20121;-78
2022/04/26 11:22:24;;;;;;;10.48;4.55;;;13.00;99.90;;;;;;4995245;28;20566;-78
2022/04/26 11:28:00;;;;;;;5.90;3.97;;;13.40;99.90;;;;;;5008878;28;20042;-78
2022/04/26 11:30:39;;;;;;;6.70;4.10;;;13.40;99.90;;;;;;4993174;28;20037;-78
2022/04/26 11:33:08;;;;;;;7.20;4.03;;;13.60;99.90;;;;;;5023033;28;20409;-78
2022/04/26 11:35:35;;;;;;;10.33;4.47;;;13.50;96.60;;;;;;5009155;28;20054;-78
2022/04/26 11:38:16;;;;;;;7.33;4.97;;;13.50;99.90;;;;;;5008975;28;20050;-78
2022/04/26 11:40:52;;;;;;;5.43;4.40;;;13.60;99.90;;;;;;5021359;28;20141;-78
2022/04/26 11:43:26;;;;;;;5.97;4.10;;;13.70;98.60;;;;;;5010062;28;20664;-77
2022/04/26 11:45:54;;;;;;;6.17;4.57;;;13.70;97.80;;;;;;5025694;28;20045;-78
2022/04/26 11:48:22;;;;;;;5.13;4.40;;;13.60;99.90;;;;;;4991160;28;20503;-78
2022/04/26 11:50:49;;;;;;;6.03;4.53;;;13.40;99.90;;;;;;5008807;28;20188;-78
2022/04/26 11:53:17;;;;;;;7.83;4.80;;;13.60;98.90;;;;;;4992686;28;20125;-79
2022/04/26 11:55:44;;;;;;;8.40;4.63;;;13.70;99.90;;;;;;5008787;28;20501;-78
2022/04/26 11:58:19;;;;;;;9.23;4.37;;;13.40;99.90;;;;;;5026446;28;20084;-79
2022/04/26 12:01:21;;;;;;;6.63;5.00;;;13.10;99.90;;;;;;4991973;28;20034;-77
2022/04/26 12:03:54;;;;;;;6.35;4.65;;;13.00;99.90;;;;;;4951468;28;20621;-77
2022/04/26 12:06:32;;;;;;;6.30;4.10;;;13.20;99.90;;;;;;4999204;28;20498;-77
2022/04/26 12:09:05;;;;;;;7.53;4.80;;;13.50;99.90;;;;;;5002523;28;20037;-77
2022/04/26 12:11:35;;;;;;;8.57;4.50;;;13.80;99.90;;;;;;5005804;28;20849;-78
2022/04/26 12:14:12;;;;;;;7.17;4.73;;;14.00;99.60;;;;;;4995158;28;20123;-76
2022/04/26 12:16:42;;;;;;;8.40;4.30;;;13.90;94.90;;;;;;4992007;28;20046;-77
2022/04/26 12:19:08;;;;;;;7.03;3.80;;;13.80;96.20;;;;;;5010157;28;20095;-77
2022/04/26 12:21:57;;;;;;;6.97;3.90;;;14.10;95.40;;;;;;4992241;28;20052;-78
2022/04/26 12:24:29;;;;;;;5.83;3.90;;;14.30;81.50;;;;;;5013852;28;20144;-77
2022/04/26 12:27:02;;;;;;;7.40;4.13;;;14.30;82.10;;;;;;4996754;28;20670;-77
2022/04/26 12:29:36;;;;;;;6.50;3.83;;;14.40;91.20;;;;;;5000140;28;20041;-77
2022/04/26 12:32:06;;;;;;;6.70;3.93;;;14.60;91.50;;;;;;4992313;28;20119;-77
2022/04/26 12:34:32;;;;;;;11.70;4.57;;;14.50;86.10;;;;;;5008676;28;20045;-77
2022/04/26 12:37:06;;;;;;;7.73;4.23;;;14.50;85.40;;;;;;4996046;28;20489;-77
2022/04/26 12:39:38;;;;;;;6.10;3.83;;;14.60;77.60;;;;;;4982650;28;20087;-78
2022/04/26 12:42:06;;;;;;;5.82;3.60;;;14.40;70.40;;;;;;4999504;28;20045;-77
2022/04/26 12:44:32;;;;;;;8.77;4.03;;;13.90;86.70;;;;;;5025203;28;20068;-77
2022/04/26 12:52:44;;;;;;;4.60;4.20;;;14.00;83.70;;;;;;5011218;28;20045;-78
2022/04/26 12:55:10;;;;;;;7.73;3.93;;;14.10;83.90;;;;;;5008151;28;20048;-77
2022/04/26 12:57:49;;;;;;;6.30;3.73;;;14.30;82.30;;;;;;4995185;28;20810;-77
2022/04/26 13:00:15;;;;;;;11.57;4.43;;;14.60;74.80;;;;;;4980493;28;20104;-77
2022/04/26 13:02:41;;;;;;;6.60;2.93;;;14.90;77.00;;;;;;4991685;28;20069;-78
2022/04/26 13:05:07;;;;;;;5.47;3.77;;;15.10;74.30;;;;;;4991908;28;20045;-78
2022/04/26 13:07:33;;;;;;;4.57;3.45;;;15.20;69.80;;;;;;5008009;28;20044;-78
2022/04/26 13:09:59;;;;;;;8.95;3.95;;;15.30;72.00;;;;;;5004935;28;20037;-78
2022/04/26 13:12:24;;;;;;;5.67;3.43;;;15.40;71.80;;;;;;4991765;28;20074;-78
2022/04/26 13:14:50;;;;;;;6.82;3.83;;;15.40;71.30;;;;;;5011228;28;20124;-77
2022/04/26 13:17:20;;;;;;;5.30;3.20;;;15.50;68.60;;;;;;5008851;28;20046;-78
2022/04/26 13:19:47;;;;;;;5.05;3.20;;;15.50;67.10;;;;;;5002507;28;20456;-78
2022/04/26 13:22:14;;;;;;;4.95;3.10;;;15.30;65.60;;;;;;4991448;28;20050;-78
2022/04/26 13:24:39;;;;;;;5.25;3.15;;;15.50;66.90;;;;;;4991663;28;20091;-78
2022/04/26 13:27:06;;;;;;;6.00;3.10;;;15.50;65.10;;;;;;4994779;28;20462;-77
2022/04/26 13:29:32;;;;;;;5.78;3.40;;;15.60;64.50;;;;;;4983702;28;20042;-78
2022/04/26 13:31:58;;;;;;;5.93;3.33;;;15.30;62.90;;;;;;4992023;28;20041;-78
2022/04/26 13:34:24;;;;;;;3.67;3.30;;;14.90;63.90;;;;;;5031314;28;20049;-78
2022/04/26 13:36:51;;;;;;;6.85;3.15;;;14.80;64.30;;;;;;4998319;28;20033;-78
2022/04/26 13:39:16;;;;;;;4.57;2.70;;;14.70;65.50;;;;;;5009846;28;20480;-78
2022/04/26 13:41:42;;;;;;;4.57;3.00;;;14.70;65.00;;;;;;5011403;28;20042;-79
2022/04/26 13:44:08;;;;;;;3.97;3.17;;;14.70;64.30;;;;;;5014366;28;20053;-78
2022/04/26 13:46:34;;;;;;;3.83;3.40;;;14.40;64.80;;;;;;4995104;28;20034;-77
2022/04/26 13:48:59;;;;;;;7.38;3.50;;;14.00;65.70;;;;;;4989505;28;20049;-78
2022/04/26 13:51:29;;;;;;;4.37;2.90;;;14.00;67.20;;;;;;4993580;28;20060;-77
2022/04/26 13:53:55;;;;;;;6.40;3.30;;;14.00;67.30;;;;;;5012522;28;20689;-77
2022/04/26 13:56:21;;;;;;;7.75;3.53;;;14.30;66.90;;;;;;5025794;28;20038;-78
2022/04/26 13:58:46;;;;;;;4.37;3.37;;;14.50;65.20;;;;;;4976184;28;20065;-78
2022/04/26 14:01:12;;;;;;;6.13;3.40;;;14.60;64.90;;;;;;4994759;28;20058;-78
2022/04/26 14:03:38;;;;;;;7.63;3.20;;;14.70;66.30;;;;;;4994376;28;20042;-77
2022/04/26 14:06:03;;;;;;;6.93;3.87;;;14.80;65.80;;;;;;5010446;28;20149;-78
2022/04/26 14:08:31;;;;;;;5.07;3.45;;;15.00;64.80;;;;;;5010408;28;20037;-78
2022/04/26 14:10:57;;;;;;;5.65;3.53;;;15.30;66.20;;;;;;4966692;28;20125;-78
2022/04/26 14:13:23;;;;;;;5.28;3.38;;;15.40;64.00;;;;;;4990890;28;20049;-78
2022/04/26 14:24:04;;;;;;;4.85;3.28;;;15.20;66.70;;;;;;5010336;28;20181;-78
2022/04/26 14:26:30;;;;;;;4.20;3.53;;;15.30;66.80;;;;;;4994352;28;20046;-79
2022/04/26 14:28:56;;;;;;;5.70;3.25;;;15.10;65.40;;;;;;4990236;28;20037;-78
2022/04/26 14:31:22;;;;;;;6.55;3.70;;;15.00;66.60;;;;;;4993242;28;20048;-78
2022/04/26 14:33:47;;;;;;;6.68;3.42;;;14.90;66.90;;;;;;4997236;28;20575;-77
2022/04/26 14:36:13;;;;;;;5.57;3.55;;;15.10;66.90;;;;;;5013071;28;20092;-78
2022/04/26 14:38:39;;;;;;;5.88;3.30;;;15.00;67.20;;;;;;5009015;28;20592;-79
2022/04/26 14:41:05;;;;;;;5.03;3.35;;;15.10;66.30;;;;;;5013653;28;20099;-78
2022/04/26 14:43:30;;;;;;;6.43;3.10;;;14.80;66.70;;;;;;5016925;28;20050;-79
2022/04/26 14:45:56;;;;;;;5.22;3.15;;;14.40;67.80;;;;;;4993767;28;20041;-77
2022/04/26 14:48:23;;;;;;;5.97;3.80;;;14.20;71.40;;;;;;4994044;28;20500;-78
2022/04/26 14:50:49;;;;;;;7.00;3.70;;;13.90;71.90;;;;;;4990393;28;20077;-78
2022/04/26 14:53:15;;;;;;;4.93;3.63;;;13.90;74.40;;;;;;5019210;28;20843;-78
2022/04/26 14:55:41;;;;;;;4.47;3.23;;;13.80;74.70;;;;;;4983977;28;20050;-78
2022/04/26 14:58:09;;;;;;;6.77;3.73;;;13.60;75.70;;;;;;4999701;28;20492;-78
2022/04/26 15:00:36;;;;;;;5.07;3.20;;;13.40;76.90;;;;;;5010692;28;20053;-78
2022/04/26 15:03:03;;;;;;;6.57;3.10;;;13.50;78.30;;;;;;5018223;28;20049;-78
2022/04/26 15:05:29;;;;;;;5.60;3.60;;;13.60;74.40;;;;;;4977978;28;20044;-78
2022/04/26 15:10:39;;;;;;;5.70;3.40;;;13.70;77.20;;;;;;5004482;28;20047;-78
2022/04/26 15:18:35;;;;;;;6.10;3.83;;;13.40;83.80;;;;;;5000811;28;20435;-78
2022/04/26 15:21:07;;;;;;;8.67;3.93;;;13.10;88.20;;;;;;4986024;28;20433;-78
2022/04/26 15:23:33;;;;;;;7.88;3.60;;;13.20;90.40;;;;;;5006507;28;20045;-77
2022/04/26 15:25:59;;;;;;;5.57;3.90;;;13.00;91.70;;;;;;5001175;28;20054;-77
2022/04/26 15:28:24;;;;;;;7.40;4.00;;;12.80;92.70;;;;;;4983370;28;20033;-77
2022/04/26 15:30:51;;;;;;;7.27;3.73;;;12.60;93.80;;;;;;4977652;28;20046;-78
2022/04/26 15:33:17;;;;;;;6.80;3.77;;;12.40;95.10;;;;;;4995657;28;20041;-78
2022/04/26 15:35:43;;;;;;;5.70;4.07;;;12.30;96.60;;;;;;4978461;28;20061;-78
2022/04/26 15:38:12;;;;;;;5.63;3.47;;;12.50;97.00;;;;;;4983936;28;20049;-78
2022/04/26 15:40:43;;;;;;;5.77;3.30;;;12.60;96.10;;;;;;5000130;28;20126;-77
2022/04/26 15:43:08;;;;;;;5.87;3.90;;;12.90;96.50;;;;;;5015790;28;20042;-77
2022/04/26 15:45:34;;;;;;;6.17;4.00;;;12.80;95.10;;;;;;4991301;28;20038;-77
2022/04/26 15:48:03;;;;;;;5.73;3.70;;;12.90;94.70;;;;;;4997867;28;20041;-78
2022/04/26 15:50:28;;;;;;;6.53;3.63;;;13.00;94.70;;;;;;5002940;28;20065;-77
2022/04/26 15:52:55;;;;;;;5.63;3.50;;;12.80;92.90;;;;;;4978086;28;20425;-77
2022/04/26 15:55:22;;;;;;;5.67;3.67;;;12.80;93.70;;;;;;4985064;28;20081;-77
2022/04/26 15:57:49;;;;;;;5.73;4.30;;;12.90;94.20;;;;;;4989231;28;20045;-77
2022/04/26 16:00:16;;;;;;;6.53;3.73;;;12.90;92.10;;;;;;4971181;28;20076;-77
2022/04/26 16:02:43;;;;;;;7.90;4.03;;;12.80;92.20;;;;;;4970505;28;20065;-77
2022/04/26 16:05:10;;;;;;;7.57;4.00;;;12.60;93.40;;;;;;4991031;28;20050;-77
2022/04/26 16:07:36;;;;;;;6.30;3.77;;;12.40;95.80;;;;;;4985212;28;20040;-77
2022/04/26 16:20:58;;;;;;;5.27;3.67;;;11.80;99.60;;;;;;4994491;28;20045;-77
2022/04/26 16:23:23;;;;;;;6.37;4.07;;;11.90;98.40;;;;;;5008152;28;20760;-77
2022/04/26 16:25:49;;;;;;;6.50;3.87;;;12.00;98.40;;;;;;4985214;28;20516;-78
2022/04/26 16:28:15;;;;;;;7.93;3.80;;;11.90;97.90;;;;;;4986994;28;20026;-77
2022/04/26 16:30:41;;;;;;;6.33;3.70;;;11.80;99.30;;;;;;4983935;28;20038;-77
2022/04/26 16:33:08;;;;;;;6.90;4.37;;;11.70;99.90;;;;;;4989992;28;20495;-77
2022/04/26 16:35:34;;;;;;;4.37;3.37;;;11.80;99.90;;;;;;5003570;28;20104;-77
2022/04/26 16:38:01;;;;;;;6.00;3.40;;;11.90;99.90;;;;;;4988530;28;20087;-77
2022/04/26 16:40:28;;;;;;;6.37;4.30;;;12.10;99.30;;;;;;5015232;28;20509;-77
2022/04/26 16:42:54;;;;;;;5.63;3.97;;;12.10;99.70;;;;;;4983144;28;20053;-77
2022/04/26 16:45:20;;;;;;;7.63;3.23;;;12.10;98.30;;;;;;4990020;28;20034;-78
2022/04/26 16:47:45;;;;;;;6.77;3.87;;;12.20;98.60;;;;;;5023341;28;20527;-77
2022/04/26 16:50:12;;;;;;;4.03;3.47;;;12.20;99.40;;;;;;4986835;28;20064;-77
2022/04/26 16:52:38;;;;;;;5.43;3.60;;;12.10;99.90;;;;;;5019271;28;20049;-77
2022/04/26 16:55:06;;;;;;;5.93;3.57;;;12.10;99.90;;;;;;5010831;28;20430;-77
2022/04/26 16:57:32;;;;;;;6.13;3.50;;;12.10;99.90;;;;;;4990598;28;20792;-77
2022/04/26 16:59:59;;;;;;;5.73;3.80;;;12.10;99.90;;;;;;4976792;28;20120;-77
2022/04/26 17:02:25;;;;;;;6.60;3.63;;;11.90;99.90;;;;;;4998206;28;20387;-77
2022/04/26 17:04:55;;;;;;;7.33;3.83;;;11.80;99.90;;;;;;4978387;28;20045;-77
2022/04/26 17:07:25;;;;;;;6.00;3.90;;;11.80;99.90;;;;;;4983118;28;20124;-77
2022/04/26 17:09:52;;;;;;;5.73;3.80;;;11.70;99.90;;;;;;4987342;28;20041;-76
2022/04/26 17:12:18;;;;;;;5.27;3.93;;;11.60;99.90;;;;;;4982538;28;20048;-76
2022/04/26 17:14:44;;;;;;;5.03;3.73;;;11.60;99.90;;;;;;5002211;28;20120;-77